Terminal Aerodrome Forecast
Issued by NWS

Home | Current Version | Previous Version | Text Only | Print | Product List | Glossary Off
Versions: 1 2 3 4 5 6 7 8 9 10 11 12 13 14 15 16 17 18 19 20 21 22 23 24 25 26 27 28 29 30

606
FTUS43 KGRB 240914 AAA
TAFRHI
TAF AMD
KRHI 240914Z 2409/2506 17007KT P6SM SCT007 OVC020
      TEMPO 2409/2411 4SM -SHRA BKN007
     FM241100 17007KT P6SM SCT007 OVC020
      TEMPO 2411/2413 2SM TSRA BKN007CB
     FM241500 24009KT P6SM SCT025 BKN045
     FM242000 27010G18KT P6SM SCT050
     FM250100 27005KT P6SM FEW050=

USA.gov is the U.S. government's official web portal to all federal, state and local government web resources and services.